Weather at Asheville Regional Airport

Public forecast

Using degrees Fahrenheit for public forecast. Weather courtesy of forecast.io.

Current aviation weather report (METAR) for Asheville Regional Airport

Retrieved 2021/03/08 00:54 UTC (1 hour ago):

KAVL 080054Z 00000KT 10SM CLR 06/M11 A3037 RMK AO2 SLP292 T00611106

Aviation forecast (TAF) for Asheville Regional Airport

Retrieved 2021-03-08 00:42 UTC (1 hour ago):

TAF KAVL 072339Z 0800/0824 35009KT P6SM SKC TEMPO 0800/0802 35012G20KT FM080400 33006KT P6SM SKC FM082100 29005KT P6SM FEW250 FM082300 24003KT P6SM FEW250